createdAt,value
2022-12-16T00:00:09.713Z,7.37
2022-12-16T00:02:31.369Z,6.75
2022-12-16T00:03:34.558Z,7.63
2022-12-16T00:05:56.238Z,7.55
2022-12-16T00:06:58.907Z,11.49
2022-12-16T00:08:01.546Z,7.37
2022-12-16T00:09:04.347Z,8.05
2022-12-16T00:10:07.115Z,6.86
2022-12-16T00:11:09.933Z,7.46
2022-12-16T00:12:12.668Z,7.68
2022-12-16T00:13:15.332Z,7.48
2022-12-16T00:14:17.997Z,7.54
2022-12-16T00:15:20.877Z,7.33
2022-12-16T00:16:23.627Z,8.90
2022-12-16T00:17:26.318Z,8.01
2022-12-16T00:18:28.993Z,7.49
2022-12-16T00:19:31.681Z,8.76
2022-12-16T00:20:34.326Z,9.42
2022-12-16T00:21:37.174Z,7.85
2022-12-16T00:22:39.975Z,8.52
2022-12-16T00:23:42.748Z,10.34
2022-12-16T00:24:45.422Z,6.09
2022-12-16T00:25:48.193Z,7.18
2022-12-16T00:26:51.065Z,8.07
2022-12-16T00:28:00.223Z,7.61
2022-12-16T00:28:59.379Z,9.29
2022-12-16T00:30:02.050Z,6.98
2022-12-16T00:31:04.717Z,8.21
2022-12-16T00:32:07.382Z,10.12
2022-12-16T00:33:10.769Z,10.42
2022-12-16T00:34:13.852Z,9.28
2022-12-16T00:35:16.620Z,8.84
2022-12-16T00:36:19.395Z,10.85
2022-12-16T00:37:22.371Z,8.36
2022-12-16T00:38:25.447Z,8.10
2022-12-16T00:39:28.536Z,10.67
2022-12-16T00:40:31.301Z,8.13
2022-12-16T00:41:34.176Z,8.05
2022-12-16T00:42:36.950Z,7.83
2022-12-16T00:43:40.026Z,9.28
2022-12-16T00:44:42.810Z,7.81
2022-12-16T00:45:45.529Z,10.16
2022-12-16T00:46:48.452Z,7.14
2022-12-16T00:47:51.525Z,8.75
2022-12-16T00:48:54.812Z,8.85
2022-12-16T00:49:58.315Z,8.95
2022-12-16T00:51:01.072Z,9.09
2022-12-16T00:52:04.251Z,8.05
2022-12-16T00:53:07.231Z,7.24
2022-12-16T00:54:11.641Z,8.12
2022-12-16T00:55:14.410Z,7.55
2022-12-16T00:56:17.495Z,9.01
2022-12-16T00:57:20.658Z,9.25
2022-12-16T00:58:23.650Z,11.60
2022-12-16T00:59:26.522Z,7.78
2022-12-16T01:00:29.195Z,12.31
2022-12-16T01:01:32.027Z,7.22
2022-12-16T01:02:34.886Z,9.38
2022-12-16T01:03:38.275Z,10.73
2022-12-16T01:04:41.108Z,11.60
2022-12-16T01:05:43.775Z,8.62
2022-12-16T01:06:46.551Z,8.51
2022-12-16T01:07:49.220Z,10.90
2022-12-16T01:08:53.833Z,8.31
2022-12-16T01:09:58.037Z,8.75
2022-12-16T01:11:01.116Z,9.16
2022-12-16T01:12:04.093Z,7.69
2022-12-16T01:13:07.072Z,8.22
2022-12-16T01:14:11.483Z,8.56
2022-12-16T01:15:14.458Z,7.08
2022-12-16T01:16:17.438Z,9.30
2022-12-16T01:17:21.128Z,6.13
2022-12-16T01:18:23.806Z,6.64
2022-12-16T01:19:26.571Z,5.98
2022-12-16T01:20:29.342Z,6.01
2022-12-16T01:21:32.317Z,7.44
2022-12-16T01:22:35.193Z,8.28
2022-12-16T01:23:38.071Z,9.70
2022-12-16T01:24:41.045Z,8.35
2022-12-16T01:25:43.921Z,6.85
2022-12-16T01:26:47.007Z,6.50
2022-12-16T01:27:49.984Z,6.87
2022-12-16T01:28:53.474Z,9.41
2022-12-16T01:29:57.793Z,10.02
2022-12-16T01:31:00.548Z,8.60
2022-12-16T01:32:03.481Z,7.61
2022-12-16T01:33:06.609Z,8.98
2022-12-16T01:34:09.479Z,9.98
2022-12-16T01:35:43.819Z,10.15
2022-12-16T01:36:16.893Z,11.08
2022-12-16T01:37:20.054Z,11.67
2022-12-16T01:38:22.924Z,11.13
2022-12-16T01:39:25.902Z,8.97
2022-12-16T01:40:28.885Z,10.27
2022-12-16T01:41:31.653Z,9.98
2022-12-16T01:42:34.627Z,13.28
2022-12-16T01:43:37.406Z,9.18
2022-12-16T01:44:40.173Z,12.62
2022-12-16T01:45:43.134Z,9.75
2022-12-16T01:46:46.133Z,8.69
2022-12-16T01:47:48.926Z,9.52
2022-12-16T01:48:51.871Z,13.23
2022-12-16T01:49:55.055Z,11.26
2022-12-16T01:50:57.928Z,10.13
2022-12-16T01:52:00.709Z,9.35
2022-12-16T01:53:03.473Z,6.59
2022-12-16T01:54:06.249Z,8.39
2022-12-16T01:55:09.019Z,8.99
2022-12-16T01:56:11.695Z,6.45
2022-12-16T01:57:14.575Z,9.14
2022-12-16T01:58:17.447Z,10.24
2022-12-16T01:59:20.212Z,11.45
2022-12-16T02:00:23.187Z,13.88
2022-12-16T02:01:26.229Z,11.45
2022-12-16T02:02:29.710Z,11.42
2022-12-16T02:03:33.151Z,10.39
2022-12-16T02:04:36.120Z,8.75
2022-12-16T02:05:39.097Z,11.13
2022-12-16T02:06:41.679Z,11.55
2022-12-16T02:07:44.638Z,13.98
2022-12-16T02:08:47.412Z,13.30
2022-12-16T02:09:50.392Z,10.76
2022-12-16T02:10:53.367Z,8.92
2022-12-16T02:11:57.879Z,11.64
2022-12-16T02:13:00.652Z,11.45
2022-12-16T02:14:03.428Z,12.42
2022-12-16T02:15:05.992Z,10.54
2022-12-16T02:16:12.725Z,10.79
2022-12-16T02:17:13.248Z,10.30
2022-12-16T02:18:16.048Z,12.18
2022-12-16T02:19:18.821Z,9.28
2022-12-16T02:20:21.602Z,10.53
2022-12-16T02:21:24.162Z,9.98
2022-12-16T02:22:26.932Z,8.19
2022-12-16T02:23:30.291Z,9.33
2022-12-16T02:24:33.201Z,8.78
2022-12-16T02:25:35.863Z,9.71
2022-12-16T02:26:38.578Z,9.44
2022-12-16T02:27:41.544Z,10.73
2022-12-16T02:28:44.385Z,9.42
2022-12-16T02:29:47.159Z,10.95
2022-12-16T02:30:49.973Z,12.00
2022-12-16T02:31:53.987Z,9.42
2022-12-16T02:32:56.908Z,9.25
2022-12-16T02:33:59.680Z,13.61
2022-12-16T02:35:02.476Z,8.03
2022-12-16T02:36:05.225Z,8.95
2022-12-16T02:37:07.895Z,8.97
2022-12-16T02:38:11.486Z,8.34
2022-12-16T02:39:14.364Z,9.86
2022-12-16T02:40:17.241Z,9.81
2022-12-16T02:41:20.111Z,7.83
2022-12-16T02:42:23.113Z,11.35
2022-12-16T02:43:25.966Z,9.11
2022-12-16T02:44:28.738Z,10.16
2022-12-16T02:45:31.695Z,8.48
2022-12-16T02:46:34.384Z,10.72
2022-12-16T02:47:37.471Z,10.16
2022-12-16T02:48:40.232Z,13.62
2022-12-16T02:49:43.317Z,10.15
2022-12-16T02:50:46.288Z,12.25
2022-12-16T02:51:49.173Z,9.74
2022-12-16T02:52:52.446Z,8.61
2022-12-16T02:53:55.425Z,11.20
2022-12-16T02:54:58.318Z,10.69
2022-12-16T02:56:01.084Z,9.26
2022-12-16T02:57:03.843Z,9.15
2022-12-16T02:58:06.726Z,7.94
2022-12-16T02:59:09.694Z,9.65
2022-12-16T03:00:12.374Z,8.71
2022-12-16T03:01:15.095Z,9.16
2022-12-16T03:02:18.138Z,7.43
2022-12-16T03:03:20.940Z,7.15
2022-12-16T03:04:23.878Z,7.15
2022-12-16T03:05:26.634Z,8.44
2022-12-16T03:06:29.308Z,8.55
2022-12-16T03:07:31.973Z,8.65
2022-12-16T03:08:34.850Z,7.24
2022-12-16T03:09:37.721Z,4.92
2022-12-16T03:10:40.711Z,6.83
2022-12-16T03:11:43.479Z,9.35
2022-12-16T03:12:47.475Z,9.92
2022-12-16T03:13:50.251Z,9.94
2022-12-16T03:14:52.921Z,8.15
2022-12-16T03:15:55.691Z,9.98
2022-12-16T03:16:58.625Z,8.44
2022-12-16T03:18:01.233Z,11.49
2022-12-16T03:19:04.246Z,9.26
2022-12-16T03:20:06.986Z,9.05
2022-12-16T03:21:09.751Z,9.08
2022-12-16T03:22:12.845Z,11.65
2022-12-16T03:23:15.511Z,11.62
2022-12-16T03:24:18.481Z,6.91
2022-12-16T03:25:21.255Z,10.81
2022-12-16T03:26:23.937Z,9.45
2022-12-16T03:27:27.311Z,12.38
2022-12-16T03:28:30.080Z,12.05
2022-12-16T03:29:33.163Z,8.62
2022-12-16T03:30:36.307Z,9.18
2022-12-16T03:31:39.122Z,9.82
2022-12-16T03:32:41.685Z,10.13
2022-12-16T03:33:44.453Z,10.93
2022-12-16T03:34:47.435Z,11.94
2022-12-16T03:35:50.412Z,10.64
2022-12-16T03:36:53.287Z,10.54
2022-12-16T03:37:56.159Z,13.33
2022-12-16T03:38:58.834Z,12.82
2022-12-16T03:40:01.397Z,10.73
2022-12-16T03:41:04.168Z,12.98
2022-12-16T03:42:06.942Z,9.31
2022-12-16T03:43:09.611Z,12.19
2022-12-16T03:44:12.386Z,10.05
2022-12-16T03:45:15.055Z,11.50
2022-12-16T03:46:17.987Z,12.29
2022-12-16T03:47:23.916Z,12.96
2022-12-16T03:48:25.413Z,11.17
2022-12-16T03:49:28.193Z,11.44
2022-12-16T03:50:30.860Z,11.53
2022-12-16T03:51:33.631Z,10.96
2022-12-16T03:52:36.506Z,8.65
2022-12-16T03:53:39.592Z,13.70
2022-12-16T03:54:42.668Z,11.98
2022-12-16T03:55:45.545Z,8.02
2022-12-16T03:56:48.524Z,7.89
2022-12-16T03:57:51.392Z,8.53
2022-12-16T03:58:54.162Z,10.59
2022-12-16T03:59:57.145Z,11.77
2022-12-16T04:01:00.126Z,10.52
2022-12-16T04:02:03.247Z,10.22
2022-12-16T04:03:06.594Z,11.34
2022-12-16T04:04:09.668Z,9.12
2022-12-16T04:05:12.647Z,13.55
2022-12-16T04:06:15.411Z,11.06
2022-12-16T04:07:18.082Z,12.47
2022-12-16T04:08:20.853Z,13.53
2022-12-16T04:09:23.830Z,11.38
2022-12-16T04:10:26.710Z,13.61
2022-12-16T04:11:29.683Z,12.75
2022-12-16T04:12:32.656Z,13.31
2022-12-16T04:13:36.163Z,11.08
2022-12-16T04:14:39.533Z,11.56
2022-12-16T04:15:42.391Z,8.99
2022-12-16T04:16:45.393Z,11.22
2022-12-16T04:17:48.262Z,11.59
2022-12-16T04:18:51.134Z,11.82
2022-12-16T04:19:55.271Z,11.97
2022-12-16T04:20:58.012Z,13.51
2022-12-16T04:22:00.687Z,14.06
2022-12-16T04:23:03.245Z,10.77
2022-12-16T04:24:05.921Z,11.54
2022-12-16T04:25:08.591Z,10.16
2022-12-16T04:26:11.154Z,11.07
2022-12-16T04:27:15.950Z,11.65
2022-12-16T04:28:18.239Z,12.84
2022-12-16T04:29:20.813Z,11.42
2022-12-16T04:30:23.683Z,12.27
2022-12-16T04:31:26.422Z,10.68
2022-12-16T04:32:29.118Z,11.60
2022-12-16T04:33:32.319Z,8.97
2022-12-16T04:34:35.074Z,8.05
2022-12-16T04:35:37.846Z,12.78
2022-12-16T04:36:40.415Z,12.87
2022-12-16T04:37:42.987Z,12.37
2022-12-16T04:38:45.654Z,10.42
2022-12-16T04:39:48.433Z,10.74
2022-12-16T04:40:51.093Z,9.59
2022-12-16T04:41:53.778Z,13.06
2022-12-16T04:42:56.433Z,14.39
2022-12-16T04:43:59.120Z,9.42
2022-12-16T04:45:01.773Z,11.89
2022-12-16T04:46:04.610Z,13.13
2022-12-16T04:47:07.536Z,10.78
2022-12-16T04:48:10.106Z,16.72
2022-12-16T04:49:12.769Z,11.58
2022-12-16T04:50:15.336Z,14.03
2022-12-16T04:51:18.407Z,12.50
2022-12-16T04:52:21.384Z,10.49
2022-12-16T04:53:24.360Z,12.00
2022-12-16T04:54:27.025Z,9.76
2022-12-16T04:55:29.905Z,9.54
2022-12-16T04:56:32.788Z,7.08
2022-12-16T04:57:35.573Z,8.38
2022-12-16T04:58:38.233Z,7.92
2022-12-16T04:59:40.889Z,9.01
2022-12-16T05:00:43.568Z,11.68
2022-12-16T05:01:46.362Z,10.57
2022-12-16T05:02:49.427Z,10.03
2022-12-16T05:03:52.427Z,9.26
2022-12-16T05:04:55.065Z,10.10
2022-12-16T05:05:57.953Z,9.20
2022-12-16T05:07:00.811Z,8.85
2022-12-16T05:08:03.793Z,13.48
2022-12-16T05:09:06.458Z,11.51
2022-12-16T05:10:09.125Z,10.97
2022-12-16T05:11:12.001Z,9.66
2022-12-16T05:12:14.673Z,10.72
2022-12-16T05:13:17.649Z,10.87
2022-12-16T05:14:21.756Z,9.00
2022-12-16T05:15:24.625Z,10.81
2022-12-16T05:16:27.813Z,9.44
2022-12-16T05:17:30.690Z,8.25
2022-12-16T05:18:33.970Z,6.28
2022-12-16T05:19:36.745Z,7.73
2022-12-16T05:20:39.649Z,10.73
2022-12-16T05:21:42.695Z,10.28
2022-12-16T05:22:45.469Z,11.71
2022-12-16T05:23:48.444Z,12.72
2022-12-16T05:24:53.192Z,9.90
2022-12-16T05:25:55.834Z,9.53
2022-12-16T05:26:58.708Z,9.88
2022-12-16T05:28:01.271Z,10.53
2022-12-16T05:29:03.935Z,8.65
2022-12-16T05:30:06.945Z,11.82
2022-12-16T05:31:09.935Z,11.94
2022-12-16T05:32:12.768Z,11.57
2022-12-16T05:33:15.647Z,12.08
2022-12-16T05:34:18.520Z,12.03
2022-12-16T05:35:21.494Z,9.41
2022-12-16T05:36:24.271Z,7.77
2022-12-16T05:37:26.836Z,9.28
2022-12-16T05:38:29.609Z,9.65
2022-12-16T05:39:32.491Z,10.99
2022-12-16T05:40:38.024Z,10.69
2022-12-16T05:41:41.106Z,9.76
2022-12-16T05:42:43.672Z,11.14
2022-12-16T05:43:46.230Z,12.35
2022-12-16T05:44:48.803Z,12.98
2022-12-16T05:45:51.642Z,9.81
2022-12-16T05:46:54.401Z,13.92
2022-12-16T05:47:57.033Z,13.58
2022-12-16T05:48:59.790Z,12.28
2022-12-16T05:50:02.553Z,13.59
2022-12-16T05:51:05.334Z,12.73
2022-12-16T05:52:08.312Z,11.78
2022-12-16T05:53:11.183Z,11.22
2022-12-16T05:54:14.173Z,12.59
2022-12-16T05:55:17.145Z,10.68
2022-12-16T05:56:19.907Z,14.11
2022-12-16T05:57:22.686Z,13.43
2022-12-16T05:58:25.560Z,12.42
2022-12-16T05:59:28.431Z,10.90
2022-12-16T06:00:31.417Z,11.17
2022-12-16T06:01:34.505Z,14.20
2022-12-16T06:02:37.763Z,11.82
2022-12-16T06:03:40.770Z,11.47
2022-12-16T06:04:43.830Z,11.02
2022-12-16T06:05:46.701Z,9.55
2022-12-16T06:06:49.585Z,10.69
2022-12-16T06:07:52.454Z,8.70
2022-12-16T06:08:55.328Z,9.76
2022-12-16T06:09:58.106Z,9.85
2022-12-16T06:11:00.970Z,12.02
2022-12-16T06:12:03.751Z,11.76
2022-12-16T06:13:06.624Z,9.57
2022-12-16T06:14:09.593Z,9.32
2022-12-16T06:15:12.470Z,10.05
2022-12-16T06:16:15.660Z,10.14
2022-12-16T06:17:18.632Z,12.85
2022-12-16T06:18:21.717Z,13.11
2022-12-16T06:19:24.596Z,12.60
2022-12-16T06:20:27.470Z,14.04
2022-12-16T06:21:31.253Z,15.56
2022-12-16T06:22:34.556Z,14.26
2022-12-16T06:23:37.561Z,9.01
2022-12-16T06:24:40.391Z,9.90
2022-12-16T06:25:43.057Z,15.50
2022-12-16T06:26:45.833Z,15.83
2022-12-16T06:27:48.401Z,14.81
2022-12-16T06:28:51.176Z,12.72
2022-12-16T06:29:53.745Z,14.43
2022-12-16T06:30:56.411Z,15.08
2022-12-16T06:31:59.446Z,15.26
2022-12-16T06:33:02.262Z,15.74
2022-12-16T06:34:04.930Z,14.45
2022-12-16T06:35:07.702Z,15.57
2022-12-16T06:36:10.680Z,16.46
2022-12-16T06:37:13.553Z,18.05
2022-12-16T06:38:16.431Z,14.58
2022-12-16T06:39:19.103Z,16.28
2022-12-16T06:40:21.665Z,16.47
2022-12-16T06:41:24.350Z,16.35
2022-12-16T06:42:27.005Z,14.08
2022-12-16T06:43:30.109Z,13.62
2022-12-16T06:44:33.064Z,12.16
2022-12-16T06:45:35.785Z,13.69
2022-12-16T06:46:38.402Z,16.42
2022-12-16T06:47:40.971Z,15.74
2022-12-16T06:48:43.768Z,17.68
2022-12-16T06:49:46.414Z,15.02
2022-12-16T06:50:53.633Z,13.58
2022-12-16T06:51:53.188Z,13.59
2022-12-16T06:52:55.853Z,13.81
2022-12-16T06:53:58.632Z,15.65
2022-12-16T06:55:01.295Z,16.55
2022-12-16T06:56:03.865Z,17.34
2022-12-16T06:57:06.736Z,16.22
2022-12-16T06:58:10.140Z,14.93
2022-12-16T06:59:13.205Z,18.95
2022-12-16T07:00:16.285Z,24.14
2022-12-16T07:01:19.325Z,20.95
2022-12-16T07:02:22.269Z,23.35
2022-12-16T07:03:24.908Z,14.81
2022-12-16T07:04:27.587Z,15.41
2022-12-16T07:05:30.454Z,15.74
2022-12-16T07:06:33.022Z,15.93
2022-12-16T07:07:35.695Z,14.58
2022-12-16T07:08:38.360Z,14.95
2022-12-16T07:09:41.026Z,15.88
2022-12-16T07:10:44.223Z,13.70
2022-12-16T07:11:46.990Z,14.79
2022-12-16T07:12:49.860Z,14.47
2022-12-16T07:13:52.831Z,17.38
2022-12-16T07:14:55.711Z,12.60
2022-12-16T07:15:58.788Z,15.98
2022-12-16T07:17:01.672Z,15.95
2022-12-16T07:18:04.555Z,16.01
2022-12-16T07:19:07.413Z,14.17
2022-12-16T07:20:10.189Z,13.38
2022-12-16T07:21:13.369Z,12.13
2022-12-16T07:22:16.253Z,15.31
2022-12-16T07:23:19.972Z,12.78
2022-12-16T07:24:23.131Z,13.26
2022-12-16T07:25:25.994Z,16.84
2022-12-16T07:26:28.870Z,16.05
2022-12-16T07:27:31.746Z,17.15
2022-12-16T07:28:34.835Z,17.22
2022-12-16T07:29:37.696Z,16.72
2022-12-16T07:30:40.471Z,21.52
2022-12-16T07:31:43.815Z,20.78
2022-12-16T07:32:46.729Z,18.20
2022-12-16T07:33:49.540Z,19.08
2022-12-16T07:34:52.483Z,20.38
2022-12-16T07:35:55.453Z,14.03
2022-12-16T07:36:58.438Z,16.33
2022-12-16T07:38:01.308Z,18.18
2022-12-16T07:39:04.439Z,15.30
2022-12-16T07:40:07.058Z,17.01
2022-12-16T07:41:09.831Z,14.72
2022-12-16T07:42:12.908Z,15.16
2022-12-16T07:43:15.796Z,18.85
2022-12-16T07:44:18.762Z,20.67
2022-12-16T07:45:21.330Z,20.05
2022-12-16T07:46:24.084Z,22.53
2022-12-16T07:47:26.673Z,16.58
2022-12-16T07:48:29.238Z,17.76
2022-12-16T07:49:31.905Z,16.72
2022-12-16T07:50:34.573Z,18.52
2022-12-16T07:51:37.247Z,15.79
2022-12-16T07:52:40.322Z,15.42
2022-12-16T07:53:43.098Z,16.01
2022-12-16T07:54:45.973Z,15.90
2022-12-16T07:55:48.845Z,17.49
2022-12-16T07:56:51.725Z,21.58
2022-12-16T07:57:55.006Z,22.42
2022-12-16T07:58:57.990Z,23.35
2022-12-16T08:00:00.754Z,21.05
2022-12-16T08:01:07.819Z,20.51
2022-12-16T08:02:08.244Z,20.99
2022-12-16T08:03:11.822Z,25.03
2022-12-16T08:04:14.717Z,20.66
2022-12-16T08:05:17.272Z,22.58
2022-12-16T08:06:20.151Z,20.87
2022-12-16T08:07:23.042Z,23.08
2022-12-16T08:08:26.310Z,24.17
2022-12-16T08:09:29.287Z,27.41
2022-12-16T08:10:32.169Z,26.97
2022-12-16T08:11:34.837Z,25.11
2022-12-16T08:12:37.705Z,19.05
2022-12-16T08:13:41.057Z,18.86
2022-12-16T08:14:43.969Z,29.30
2022-12-16T08:15:46.863Z,24.37
2022-12-16T08:16:49.716Z,21.97
2022-12-16T08:17:52.523Z,22.41
2022-12-16T08:18:55.568Z,21.88
2022-12-16T08:19:58.455Z,25.03
2022-12-16T08:21:01.635Z,19.98
2022-12-16T08:22:04.601Z,20.66
2022-12-16T08:23:07.533Z,23.63
2022-12-16T08:24:10.551Z,21.81
2022-12-16T08:25:13.333Z,21.14
2022-12-16T08:26:16.404Z,21.94
2022-12-16T08:27:19.382Z,21.35
2022-12-16T08:28:21.949Z,18.94
2022-12-16T08:29:43.768Z,22.29
2022-12-16T08:30:29.328Z,21.62
2022-12-16T08:31:32.116Z,21.27
2022-12-16T08:32:34.674Z,18.87
2022-12-16T08:33:37.886Z,16.65
2022-12-16T08:34:40.837Z,19.45
2022-12-16T08:35:43.512Z,23.29
2022-12-16T08:36:46.281Z,19.54
2022-12-16T08:37:49.160Z,19.44
2022-12-16T08:38:51.933Z,20.29
2022-12-16T08:40:25.823Z,18.48
2022-12-16T08:41:00.338Z,19.02
2022-12-16T08:42:03.258Z,25.15
2022-12-16T08:43:10.991Z,24.33
2022-12-16T08:44:10.496Z,26.58
2022-12-16T08:45:13.578Z,23.56
2022-12-16T08:46:16.606Z,17.55
2022-12-16T08:47:19.429Z,25.28
2022-12-16T08:48:22.302Z,19.42
2022-12-16T08:49:25.172Z,19.65
2022-12-16T08:50:28.150Z,18.68
2022-12-16T08:51:31.129Z,20.63
2022-12-16T08:52:34.313Z,21.68
2022-12-16T08:53:37.189Z,22.75
2022-12-16T08:54:40.065Z,29.05
2022-12-16T08:55:43.143Z,22.92
2022-12-16T08:56:46.022Z,22.82
2022-12-16T08:57:49.044Z,25.02
2022-12-16T08:58:51.872Z,25.98
2022-12-16T08:59:55.472Z,26.56
2022-12-16T09:01:04.730Z,29.84
2022-12-16T09:02:03.553Z,27.68
2022-12-16T09:03:06.826Z,27.48
2022-12-16T09:04:09.791Z,28.55
2022-12-16T09:05:12.709Z,27.84
2022-12-16T09:06:15.682Z,24.18
2022-12-16T09:07:18.455Z,22.66
2022-12-16T09:08:21.327Z,21.62
2022-12-16T09:09:24.200Z,26.37
2022-12-16T09:10:27.068Z,20.14
2022-12-16T09:11:30.369Z,20.85
2022-12-16T09:12:33.230Z,24.81
2022-12-16T09:13:36.545Z,23.02
2022-12-16T09:14:39.500Z,25.25
2022-12-16T09:15:42.358Z,26.37
2022-12-16T09:16:45.355Z,27.79
2022-12-16T09:17:48.028Z,20.85
2022-12-16T09:18:50.585Z,25.15
2022-12-16T09:19:53.989Z,27.62
2022-12-16T09:20:57.663Z,19.85
2022-12-16T09:22:00.641Z,20.42
2022-12-16T09:23:03.208Z,26.15
2022-12-16T09:24:05.878Z,21.35
2022-12-16T09:25:08.467Z,26.42
2022-12-16T09:26:11.194Z,21.97
2022-12-16T09:27:13.904Z,19.65
2022-12-16T09:28:16.558Z,25.52
2022-12-16T09:29:19.226Z,23.42
2022-12-16T09:30:21.899Z,27.82
2022-12-16T09:31:24.733Z,26.12
2022-12-16T09:32:27.648Z,23.92
2022-12-16T09:33:30.731Z,24.69
2022-12-16T09:34:33.600Z,24.14
2022-12-16T09:35:36.469Z,25.96
2022-12-16T09:36:39.040Z,26.15
2022-12-16T09:37:41.716Z,31.63
2022-12-16T09:38:44.280Z,29.04
2022-12-16T09:39:46.842Z,26.94
2022-12-16T09:40:49.519Z,29.14
2022-12-16T09:41:52.080Z,31.78
2022-12-16T09:42:56.498Z,27.68
2022-12-16T09:43:59.267Z,26.56
2022-12-16T09:45:02.140Z,27.18
2022-12-16T09:46:05.095Z,28.78
2022-12-16T09:47:08.689Z,27.55
2022-12-16T09:48:12.249Z,22.01
2022-12-16T09:49:15.176Z,22.86
2022-12-16T09:50:18.114Z,25.65
2022-12-16T09:51:20.924Z,28.09
2022-12-16T09:52:23.701Z,26.21
2022-12-16T09:53:26.881Z,27.57
2022-12-16T09:54:29.761Z,28.68
2022-12-16T09:55:32.625Z,27.39
2022-12-16T09:56:35.398Z,32.74
2022-12-16T09:57:38.271Z,25.55
2022-12-16T09:58:41.456Z,27.90
2022-12-16T09:59:45.051Z,33.12
2022-12-16T10:00:47.617Z,29.33
2022-12-16T10:01:50.483Z,28.45
2022-12-16T10:02:53.654Z,24.15
2022-12-16T10:03:58.227Z,26.36
2022-12-16T10:05:00.861Z,24.12
2022-12-16T10:06:03.443Z,22.00
2022-12-16T10:07:05.997Z,19.64
2022-12-16T10:08:08.578Z,23.67
2022-12-16T10:09:11.740Z,20.97
2022-12-16T10:10:14.627Z,22.99
2022-12-16T10:11:17.487Z,20.95
2022-12-16T10:12:20.362Z,23.00
2022-12-16T10:13:23.234Z,26.66
2022-12-16T10:14:26.420Z,20.47
2022-12-16T10:15:29.333Z,20.38
2022-12-16T10:16:32.187Z,22.02
2022-12-16T10:17:34.946Z,20.65
2022-12-16T10:18:37.872Z,20.90
2022-12-16T10:19:40.998Z,22.97
2022-12-16T10:20:43.872Z,22.99
2022-12-16T10:21:46.745Z,24.43
2022-12-16T10:22:49.622Z,21.32
2022-12-16T10:23:52.496Z,20.92
2022-12-16T10:24:56.086Z,22.60
2022-12-16T10:25:58.964Z,24.54
2022-12-16T10:27:01.971Z,22.24
2022-12-16T10:28:04.813Z,21.01
2022-12-16T10:29:07.691Z,24.92
2022-12-16T10:30:11.277Z,21.47
2022-12-16T10:31:14.180Z,20.22
2022-12-16T10:32:17.128Z,18.45
2022-12-16T10:33:19.910Z,19.05
2022-12-16T10:34:22.782Z,19.82
2022-12-16T10:35:25.859Z,22.28
2022-12-16T10:36:28.729Z,24.22
2022-12-16T10:37:31.503Z,21.93
2022-12-16T10:38:34.276Z,23.08
2022-12-16T10:39:37.148Z,23.01
2022-12-16T10:40:40.246Z,18.74
2022-12-16T10:41:43.002Z,19.42
2022-12-16T10:42:45.875Z,20.58
2022-12-16T10:43:48.647Z,21.03
2022-12-16T10:44:51.728Z,24.52
2022-12-16T10:45:55.809Z,17.46
2022-12-16T10:46:59.682Z,21.59
2022-12-16T10:48:02.505Z,24.95
2022-12-16T10:49:05.264Z,23.80
2022-12-16T10:50:08.013Z,22.17
2022-12-16T10:51:11.844Z,24.09
2022-12-16T10:52:14.514Z,23.82
2022-12-16T10:53:17.084Z,23.46
2022-12-16T10:54:19.552Z,25.18
2022-12-16T10:55:22.217Z,23.66
2022-12-16T10:56:25.195Z,22.61
2022-12-16T10:57:27.962Z,24.81
2022-12-16T10:58:34.239Z,24.45
2022-12-16T10:59:35.250Z,30.21
2022-12-16T11:00:38.034Z,23.31
2022-12-16T11:01:40.910Z,22.90
2022-12-16T11:02:44.274Z,27.92
2022-12-16T11:03:47.299Z,26.60
2022-12-16T11:04:50.131Z,24.41
2022-12-16T11:05:53.005Z,27.06
2022-12-16T11:06:56.111Z,24.18
2022-12-16T11:07:58.868Z,26.82
2022-12-16T11:09:01.633Z,23.51
2022-12-16T11:10:04.403Z,28.61
2022-12-16T11:11:07.276Z,23.58
2022-12-16T11:12:10.154Z,27.78
2022-12-16T11:13:13.031Z,26.39
2022-12-16T11:14:15.802Z,25.43
2022-12-16T11:15:29.312Z,20.66
2022-12-16T11:16:22.950Z,20.27
2022-12-16T11:17:26.167Z,20.27
2022-12-16T11:18:29.148Z,25.90
2022-12-16T11:19:31.916Z,25.96
2022-12-16T11:20:34.689Z,28.15
2022-12-16T11:21:37.564Z,26.96
2022-12-16T11:22:40.557Z,23.37
2022-12-16T11:23:43.311Z,24.68
2022-12-16T11:24:46.184Z,24.92
2022-12-16T11:25:49.157Z,22.80
2022-12-16T11:26:52.036Z,24.72
2022-12-16T11:27:55.532Z,24.76
2022-12-16T11:28:58.609Z,20.98
2022-12-16T11:30:01.379Z,23.70
2022-12-16T11:31:04.208Z,23.15
2022-12-16T11:32:06.817Z,20.70
2022-12-16T11:33:09.494Z,27.05
2022-12-16T11:34:12.057Z,22.78
2022-12-16T11:35:14.724Z,20.96
2022-12-16T11:36:17.396Z,24.12
2022-12-16T11:37:21.256Z,21.14
2022-12-16T11:38:23.966Z,26.54
2022-12-16T11:39:26.531Z,26.38
2022-12-16T11:40:29.205Z,22.68
2022-12-16T11:41:31.976Z,25.83
2022-12-16T11:42:34.649Z,23.32
2022-12-16T11:43:37.726Z,27.12
2022-12-16T11:44:40.393Z,27.40
2022-12-16T11:45:42.962Z,25.87
2022-12-16T11:46:45.721Z,29.26
2022-12-16T11:47:48.301Z,32.22
2022-12-16T11:48:50.974Z,26.31
2022-12-16T11:49:53.637Z,31.53
2022-12-16T11:50:57.846Z,28.03
2022-12-16T11:52:28.090Z,27.67
2022-12-16T11:53:04.724Z,25.61
2022-12-16T11:54:07.500Z,25.42
2022-12-16T11:55:10.312Z,21.45
2022-12-16T11:56:16.341Z,25.49
2022-12-16T11:57:17.037Z,25.11
2022-12-16T11:58:19.713Z,28.69
2022-12-16T11:59:22.487Z,25.59
2022-12-16T12:00:25.152Z,22.89
2022-12-16T12:01:27.863Z,24.90
2022-12-16T12:02:30.540Z,24.48
2022-12-16T12:03:33.766Z,22.50
2022-12-16T12:04:36.888Z,25.86
2022-12-16T12:05:39.530Z,22.62
2022-12-16T12:06:42.194Z,25.60
2022-12-16T12:07:46.231Z,27.33
2022-12-16T12:08:49.273Z,23.77
2022-12-16T12:09:52.050Z,23.65
2022-12-16T12:10:55.986Z,26.99
2022-12-16T12:11:58.928Z,19.57
2022-12-16T12:13:01.799Z,24.02
2022-12-16T12:14:04.670Z,23.85
2022-12-16T12:15:07.757Z,18.68
2022-12-16T12:16:10.622Z,16.05
2022-12-16T12:17:13.194Z,20.98
2022-12-16T12:18:15.868Z,22.36
2022-12-16T12:19:18.534Z,28.08
2022-12-16T12:20:21.414Z,22.06
2022-12-16T12:21:24.076Z,18.85
2022-12-16T12:22:26.753Z,18.49
2022-12-16T12:23:29.481Z,20.25
2022-12-16T12:24:32.089Z,21.57
2022-12-16T12:25:35.372Z,24.18
2022-12-16T12:26:38.152Z,21.79
2022-12-16T12:27:41.023Z,20.58
2022-12-16T12:28:43.788Z,20.28
2022-12-16T12:29:46.667Z,19.04
2022-12-16T12:30:49.750Z,18.42
2022-12-16T12:31:52.706Z,18.79
2022-12-16T12:32:55.695Z,19.28
2022-12-16T12:33:58.883Z,18.43
2022-12-16T12:35:01.651Z,19.26
2022-12-16T12:36:04.631Z,17.92
2022-12-16T12:37:07.514Z,21.46
2022-12-16T12:38:10.380Z,20.31
2022-12-16T12:39:13.149Z,20.70
2022-12-16T12:40:15.925Z,20.96
2022-12-16T12:41:19.107Z,21.40
2022-12-16T12:42:22.005Z,18.16
2022-12-16T12:43:24.856Z,20.52
2022-12-16T12:44:36.742Z,18.02
2022-12-16T12:45:32.034Z,18.46
2022-12-16T12:46:35.042Z,19.94
2022-12-16T12:47:38.095Z,16.93
2022-12-16T12:48:40.870Z,15.60
2022-12-16T12:49:43.746Z,17.62
2022-12-16T12:50:46.627Z,23.35
2022-12-16T12:51:49.717Z,17.55
2022-12-16T12:52:52.471Z,22.83
2022-12-16T12:53:56.885Z,20.46
2022-12-16T12:54:59.774Z,20.10
2022-12-16T12:56:02.536Z,14.38
2022-12-16T12:57:05.816Z,17.76
2022-12-16T12:58:08.683Z,19.30
2022-12-16T12:59:11.987Z,19.89
2022-12-16T13:00:14.851Z,20.66
2022-12-16T13:01:17.694Z,17.80
2022-12-16T13:02:20.799Z,15.62
2022-12-16T13:03:23.815Z,16.92
2022-12-16T13:04:26.660Z,16.39
2022-12-16T13:05:29.213Z,20.04
2022-12-16T13:06:31.784Z,19.44
2022-12-16T13:07:34.550Z,18.51
2022-12-16T13:08:37.230Z,16.19
2022-12-16T13:09:39.898Z,19.18
2022-12-16T13:10:42.564Z,21.10
2022-12-16T13:11:45.128Z,21.22
2022-12-16T13:12:47.813Z,25.74
2022-12-16T13:13:50.470Z,16.37
2022-12-16T13:14:53.344Z,21.91
2022-12-16T13:15:57.913Z,19.72
2022-12-16T13:17:00.838Z,19.78
2022-12-16T13:18:03.962Z,19.67
2022-12-16T13:19:09.681Z,20.06
2022-12-16T13:20:11.326Z,13.81
2022-12-16T13:21:14.178Z,16.65
2022-12-16T13:22:17.151Z,16.65
2022-12-16T13:23:20.251Z,19.36
2022-12-16T13:24:23.012Z,18.22
2022-12-16T13:25:25.879Z,18.04
2022-12-16T13:26:28.751Z,15.76
2022-12-16T13:27:31.733Z,17.04
2022-12-16T13:28:34.712Z,21.10
2022-12-16T13:29:37.583Z,18.03
2022-12-16T13:30:40.253Z,14.22
2022-12-16T13:31:43.195Z,15.15
2022-12-16T13:32:46.212Z,17.37
2022-12-16T13:33:49.393Z,18.65
2022-12-16T13:34:52.159Z,16.15
2022-12-16T13:35:54.931Z,14.99
2022-12-16T13:36:57.910Z,15.14
2022-12-16T13:38:00.789Z,18.55
2022-12-16T13:39:03.801Z,22.12